Portada
METAR-TAF:

METAR-TAF

Aeroports :

Victòria, Mahé, Seychelles

latitud: 04-40S, longitud: 055-31E, altitud: 3 m

Observació

L'informe es va fer fa 54 minuts, a les 06:00 UTC
Vent 4 kt del Nord, variant entre Nord-Oest i Nord/Nord-Est
Temperatura 30°C
Humitat 70%
Pressió 1013 hPa
Visibilitat 10 km o més
Escasses núvols a una alçada de 2200 ft

METAR: FSIA 030600Z 36004KT 320V020 9999 FEW022 30/24 Q1013 NOSIG

Hora: 10:54 (06:54 UTC)

Pronòstic

L'informe es va fer fa 1 hora i 53 minuts, a les 05:01 UTC
Pronòstic vàlid del 03 a les 06 UTC al 04 a les 06 UTC
Vent 5 kt amb direcció variable
Visibilitat 10 km o més
Núvols disperses a una alçada de 2100 ft
Temporalment
l' 03 a les 18 UTC al 04 a les 02 UTC
Visibilitat: 8000 m
Escasses núvols a una alçada de 1000 ft
Escasses núvols a una alçada de 1500 ft, Cumulonimbus.
Cel ennuvolat a una alçada de 1900 ft
xàfecs de pluja

TAF: FSIA 030501Z 0306/0406 VRB05KT 9999 SCT021 TEMPO 0318/0402 8000 SHRA FEW010 FEW015CB BKN019

Observacions i pronòstics meteorològics de més de 4000 aeroports (METAR i TAF).

Les estacions disponibles són els punts grocs i vermells al mapa.

Posi el ratolí al punt desitjat per veure el nom de l'estació.

Feu clic per veure les observacions i els pronòstics meteorològics.

Per canviar el mapa: feu clic els botons verds amb una creu de color negre per apropar; al botó verd amb un guió per allunyar la imatge; o en les fletxes verdes per a mapes adjacents.


METAR-TAF: